Time;durP1;ratioP1;P1;durP2;ratioP2;P2;SDS_P1;SDS_P2;PMS_P1;PMS_P2;Temp;Humidity;BMP_temperature;BMP_pressure;BME280_temperature;BME280_humidity;BME280_pressure;Samples;Min_cycle;Max_cycle;Signal;HPM_P1;HPM_P2
2021/03/21 00:00:24;;;;;;;7.23;4.53;;;5.30;51.50;;;;;;10439929;28;20254;-77
2021/03/21 00:05:27;;;;;;;4.33;3.80;;;5.30;52.30;;;;;;10439734;28;20693;-79
2021/03/21 00:10:30;;;;;;;4.73;4.20;;;5.30;52.20;;;;;;10439904;28;20197;-80
2021/03/21 00:15:32;;;;;;;4.37;3.97;;;5.30;51.50;;;;;;10451728;28;20219;-80
2021/03/21 00:20:36;;;;;;;5.73;4.40;;;5.30;52.00;;;;;;10463999;28;20205;-78
2021/03/21 00:25:38;;;;;;;4.40;4.00;;;5.30;51.80;;;;;;10458507;28;20229;-80
2021/03/21 00:30:44;;;;;;;4.30;3.90;;;5.20;51.30;;;;;;10450528;28;20225;-79
2021/03/21 00:35:46;;;;;;;4.47;4.07;;;5.20;51.80;;;;;;10455900;28;20231;-79
2021/03/21 00:40:48;;;;;;;4.80;4.30;;;5.30;51.80;;;;;;10451349;28;20197;-78
2021/03/21 00:45:51;;;;;;;4.43;4.03;;;5.30;52.20;;;;;;10454985;28;20645;-76
2021/03/21 00:50:53;;;;;;;3.67;3.37;;;5.30;53.10;;;;;;10461917;28;20251;-77
2021/03/21 00:55:55;;;;;;;4.60;4.20;;;5.40;52.20;;;;;;10460751;28;20735;-79
2021/03/21 01:01:00;;;;;;;3.80;3.50;;;5.40;51.90;;;;;;10458407;28;20205;-79
2021/03/21 01:06:05;;;;;;;5.83;4.73;;;5.40;51.40;;;;;;10456719;28;20217;-79
2021/03/21 01:11:09;;;;;;;5.70;5.20;;;5.40;52.00;;;;;;10461864;28;20212;-76
2021/03/21 01:16:17;;;;;;;4.70;4.10;;;5.30;52.40;;;;;;10454766;28;20213;-79
2021/03/21 01:21:19;;;;;;;5.67;4.57;;;5.30;53.30;;;;;;10453106;28;20240;-77
2021/03/21 01:26:24;;;;;;;3.90;3.57;;;5.30;52.60;;;;;;10460392;28;20245;-78
2021/03/21 01:31:27;;;;;;;4.70;4.30;;;5.30;51.60;;;;;;10455188;28;20216;-75
2021/03/21 01:36:31;;;;;;;4.97;4.47;;;5.40;51.80;;;;;;10456393;28;20294;-80
2021/03/21 01:41:35;;;;;;;4.47;4.07;;;5.40;53.60;;;;;;10460960;28;20251;-78
2021/03/21 01:47:00;;;;;;;4.47;4.07;;;5.40;53.70;;;;;;10465849;28;20607;-77
2021/03/21 01:52:07;;;;;;;4.47;3.97;;;5.40;53.40;;;;;;10468047;28;20209;-77
2021/03/21 01:57:11;;;;;;;4.27;3.87;;;5.40;54.30;;;;;;10475810;28;20240;-80
2021/03/21 02:02:18;;;;;;;4.67;4.17;;;5.50;54.00;;;;;;10457765;28;20586;-77
2021/03/21 02:07:36;;;;;;;4.63;4.23;;;5.50;52.70;;;;;;10463710;28;20200;-77
2021/03/21 02:12:49;;;;;;;4.53;4.10;;;5.50;52.80;;;;;;10459119;28;20595;-78
2021/03/21 02:18:00;;;;;;;4.70;4.30;;;5.40;52.80;;;;;;10442390;28;20228;-78
2021/03/21 02:23:07;;;;;;;4.20;3.90;;;5.40;52.50;;;;;;10500397;22;20219;-77
2021/03/21 02:28:33;;;;;;;4.70;4.30;;;5.40;52.90;;;;;;10522912;28;20509;-77
2021/03/21 02:33:43;;;;;;;4.33;4.03;;;5.40;52.20;;;;;;10540463;28;20577;-77
2021/03/21 02:38:50;;;;;;;4.93;4.53;;;5.30;52.20;;;;;;10538863;28;20226;-77
2021/03/21 02:43:56;;;;;;;4.00;3.60;;;5.30;51.90;;;;;;10531073;28;20230;-77
2021/03/21 02:49:03;;;;;;;4.07;3.77;;;5.40;51.40;;;;;;10538664;28;20203;-77
2021/03/21 02:54:11;;;;;;;4.57;4.17;;;5.30;52.10;;;;;;10545872;28;20729;-78
2021/03/21 02:59:15;;;;;;;5.20;3.93;;;5.40;52.90;;;;;;10539516;28;20241;-77
2021/03/21 03:04:23;;;;;;;4.07;3.67;;;5.40;52.80;;;;;;10539748;28;20216;-77
2021/03/21 03:09:31;;;;;;;4.30;3.90;;;5.50;53.70;;;;;;10520375;28;20521;-77
2021/03/21 03:14:36;;;;;;;3.90;3.50;;;5.50;53.00;;;;;;10539501;28;20231;-77
2021/03/21 03:19:44;;;;;;;3.83;3.53;;;5.50;53.40;;;;;;10538812;28;20244;-78
2021/03/21 03:25:01;;;;;;;5.03;3.70;;;5.50;53.20;;;;;;10537031;28;20231;-77
2021/03/21 03:30:10;;;;;;;4.80;3.87;;;5.60;53.40;;;;;;10520503;28;20203;-77
2021/03/21 03:35:16;;;;;;;4.33;3.93;;;5.60;52.60;;;;;;10537137;28;20297;-77
2021/03/21 03:40:20;;;;;;;5.27;4.57;;;5.60;54.40;;;;;;10538524;28;20241;-78
2021/03/21 03:45:33;;;;;;;4.00;3.70;;;5.50;52.60;;;;;;10538153;28;20829;-78
2021/03/21 03:50:48;;;;;;;4.43;4.07;;;5.50;53.50;;;;;;10537051;28;20286;-78
2021/03/21 03:55:55;;;;;;;4.63;4.23;;;5.50;52.80;;;;;;10543202;28;20227;-77
2021/03/21 04:01:03;;;;;;;6.17;4.47;;;5.50;55.30;;;;;;10537544;28;20196;-77
2021/03/21 04:06:11;;;;;;;3.60;3.30;;;5.50;54.70;;;;;;10527068;28;20681;-77
2021/03/21 04:11:19;;;;;;;4.40;4.00;;;5.50;53.50;;;;;;10528328;28;20655;-77
2021/03/21 04:16:24;;;;;;;4.87;4.47;;;5.50;55.50;;;;;;10534857;28;20707;-77
2021/03/21 04:21:31;;;;;;;4.43;4.03;;;5.50;54.50;;;;;;10535563;28;20200;-77
2021/03/21 04:26:38;;;;;;;4.47;4.03;;;5.50;54.10;;;;;;10534431;28;20281;-77
2021/03/21 04:31:42;;;;;;;4.03;3.63;;;5.50;53.80;;;;;;10535821;28;20235;-77
2021/03/21 04:36:47;;;;;;;3.37;3.07;;;5.50;54.10;;;;;;10535545;28;20302;-77
2021/03/21 04:41:51;;;;;;;5.87;4.10;;;5.50;53.90;;;;;;10533852;28;20325;-77
2021/03/21 04:46:57;;;;;;;4.53;4.00;;;5.60;54.40;;;;;;10533823;28;20191;-77
2021/03/21 04:52:07;;;;;;;4.77;4.20;;;5.50;54.10;;;;;;10534761;28;20214;-77
2021/03/21 04:57:21;;;;;;;5.00;4.20;;;5.50;53.90;;;;;;10534403;28;20249;-77
2021/03/21 05:02:27;;;;;;;4.70;4.20;;;5.40;54.30;;;;;;10532585;28;20232;-77
2021/03/21 05:07:34;;;;;;;3.93;3.63;;;5.40;55.00;;;;;;10516362;28;20191;-77
2021/03/21 05:12:41;;;;;;;4.33;3.87;;;5.40;56.40;;;;;;10532786;28;20606;-78
2021/03/21 05:17:54;;;;;;;4.80;4.30;;;5.50;56.70;;;;;;10532923;28;20212;-77
2021/03/21 05:23:09;;;;;;;4.17;3.77;;;5.50;56.80;;;;;;10533433;28;20219;-78
2021/03/21 05:28:18;;;;;;;4.07;3.77;;;5.60;57.40;;;;;;10533444;28;20196;-77
2021/03/21 05:33:20;;;;;;;4.67;4.27;;;5.60;56.70;;;;;;10535610;28;20292;-78
2021/03/21 05:38:33;;;;;;;11.33;5.37;;;5.70;56.00;;;;;;10551851;28;20264;-77
2021/03/21 05:44:02;;;;;;;4.60;3.90;;;5.70;56.70;;;;;;10533360;28;20302;-77
2021/03/21 05:49:27;;;;;;;4.40;4.00;;;5.70;56.90;;;;;;10531930;28;20222;-77
2021/03/21 05:54:47;;;;;;;4.00;3.60;;;5.80;57.80;;;;;;10532566;28;20208;-77
2021/03/21 06:00:05;;;;;;;4.63;4.23;;;5.80;56.50;;;;;;10524269;28;20239;-77
2021/03/21 06:05:37;;;;;;;4.70;4.30;;;5.70;58.00;;;;;;10524536;28;20549;-77
2021/03/21 06:11:09;;;;;;;4.90;4.50;;;5.80;56.60;;;;;;10530197;28;20282;-77
2021/03/21 06:16:40;;;;;;;4.60;4.20;;;5.70;57.00;;;;;;10527621;28;20212;-77
2021/03/21 06:22:12;;;;;;;4.10;3.73;;;5.70;56.80;;;;;;10514297;28;20199;-77
2021/03/21 06:27:36;;;;;;;4.47;4.10;;;5.70;58.40;;;;;;10522523;28;20204;-77
2021/03/21 06:33:07;;;;;;;4.77;4.37;;;5.70;57.70;;;;;;10530528;28;20717;-77
2021/03/21 06:38:29;;;;;;;5.20;4.40;;;5.70;56.80;;;;;;10514226;28;20232;-77
2021/03/21 06:44:00;;;;;;;4.10;3.80;;;5.70;57.40;;;;;;10532250;28;20226;-77
2021/03/21 06:49:22;;;;;;;5.67;4.40;;;5.80;58.20;;;;;;10538321;28;20194;-78
2021/03/21 06:54:34;;;;;;;4.83;4.33;;;5.80;58.50;;;;;;10535238;28;20610;-78
2021/03/21 07:00:02;;;;;;;4.63;4.23;;;5.90;58.50;;;;;;10524499;28;20571;-78
2021/03/21 07:05:54;;;;;;;4.37;4.07;;;5.90;58.70;;;;;;10505614;28;20251;-78
2021/03/21 07:11:11;;;;;;;4.10;3.70;;;6.00;57.60;;;;;;10490408;28;20407;-78
2021/03/21 07:16:37;;;;;;;4.00;3.70;;;6.00;57.90;;;;;;10543960;28;20223;-78
2021/03/21 07:22:19;;;;;;;7.70;4.30;;;6.00;58.40;;;;;;10515644;28;20588;-78
2021/03/21 07:27:48;;;;;;;4.80;4.37;;;5.90;57.40;;;;;;10531767;28;20204;-77
2021/03/21 07:33:21;;;;;;;5.03;4.60;;;5.90;57.90;;;;;;10530330;28;20599;-78
2021/03/21 07:38:43;;;;;;;3.87;3.53;;;5.90;58.70;;;;;;10527270;28;20223;-78
2021/03/21 07:44:00;;;;;;;4.73;4.33;;;5.90;59.40;;;;;;10521900;28;20234;-78
2021/03/21 07:49:18;;;;;;;4.33;3.97;;;6.00;58.60;;;;;;10526233;28;20339;-77
2021/03/21 07:54:31;;;;;;;3.90;3.50;;;6.10;59.50;;;;;;10519465;28;20284;-78
2021/03/21 07:59:35;;;;;;;6.30;4.03;;;6.20;59.30;;;;;;10522261;28;20212;-78
2021/03/21 08:04:46;;;;;;;5.30;4.60;;;6.20;59.30;;;;;;10523991;28;20293;-78
2021/03/21 08:09:49;;;;;;;3.97;3.67;;;6.30;58.60;;;;;;10504692;28;20200;-78
2021/03/21 08:14:56;;;;;;;4.00;3.70;;;6.40;59.20;;;;;;10522027;28;20219;-77
2021/03/21 08:20:07;;;;;;;4.07;3.77;;;6.40;60.00;;;;;;10527034;28;20284;-78
2021/03/21 08:25:21;;;;;;;4.73;3.97;;;6.50;59.10;;;;;;10564210;22;20605;-78
2021/03/21 08:30:26;;;;;;;3.93;3.63;;;6.50;58.60;;;;;;10544163;28;20663;-78
2021/03/21 08:35:31;;;;;;;3.80;3.50;;;6.60;58.90;;;;;;10546795;28;20243;-77
2021/03/21 08:40:36;;;;;;;4.07;3.77;;;6.70;59.60;;;;;;10537113;28;20248;-76
2021/03/21 08:45:39;;;;;;;4.50;4.10;;;6.80;59.10;;;;;;10527308;28;20353;-77
2021/03/21 08:50:44;;;;;;;5.00;4.37;;;6.90;57.60;;;;;;10537537;28;20196;-78
2021/03/21 08:55:46;;;;;;;4.57;4.10;;;7.00;57.40;;;;;;10524962;28;20204;-77
2021/03/21 09:00:48;;;;;;;4.47;4.07;;;7.00;59.00;;;;;;10527233;28;20270;-77
2021/03/21 09:05:56;;;;;;;4.10;3.80;;;7.00;57.60;;;;;;10523727;28;20219;-76
2021/03/21 09:11:01;;;;;;;4.63;4.20;;;7.10;58.30;;;;;;10533996;28;20229;-80
2021/03/21 09:16:08;;;;;;;3.97;3.57;;;7.10;58.30;;;;;;10531334;28;20603;-78
2021/03/21 09:21:18;;;;;;;4.67;4.27;;;7.10;58.10;;;;;;10532372;28;20222;-78
2021/03/21 09:26:31;;;;;;;5.00;4.07;;;7.10;58.30;;;;;;10526859;28;20245;-77
2021/03/21 09:31:33;;;;;;;4.30;4.00;;;7.10;58.60;;;;;;10526992;28;20199;-77
2021/03/21 09:36:42;;;;;;;5.97;4.33;;;7.10;58.10;;;;;;10518478;28;20219;-76
2021/03/21 09:41:48;;;;;;;6.23;5.13;;;7.10;58.70;;;;;;10524061;28;20200;-76
2021/03/21 09:46:52;;;;;;;5.37;4.87;;;7.20;58.50;;;;;;10521676;28;20268;-77
2021/03/21 09:52:05;;;;;;;5.43;4.93;;;7.20;58.90;;;;;;10522914;28;20680;-78
2021/03/21 09:57:38;;;;;;;5.10;4.63;;;7.20;59.10;;;;;;10521159;28;20766;-77
2021/03/21 10:02:44;;;;;;;5.60;5.00;;;7.30;59.20;;;;;;10516767;28;20249;-78
2021/03/21 10:07:52;;;;;;;5.60;5.10;;;7.30;59.20;;;;;;10522648;28;20191;-78
2021/03/21 10:12:54;;;;;;;5.20;4.80;;;7.50;60.00;;;;;;10522005;28;20296;-78
2021/03/21 10:18:00;;;;;;;5.90;5.17;;;7.70;59.10;;;;;;10517994;28;20255;-77
2021/03/21 10:23:03;;;;;;;5.43;4.93;;;7.90;59.50;;;;;;10530403;28;20306;-78
2021/03/21 10:28:29;;;;;;;6.27;5.17;;;8.10;58.90;;;;;;10529914;28;20224;-78
2021/03/21 10:33:37;;;;;;;5.90;5.27;;;8.10;61.30;;;;;;10510319;28;20230;-77
2021/03/21 10:38:48;;;;;;;8.03;5.90;;;8.10;62.60;;;;;;10531062;28;20243;-78
2021/03/21 10:43:57;;;;;;;5.90;5.30;;;8.20;63.50;;;;;;10524880;28;20254;-77
2021/03/21 10:48:58;;;;;;;5.10;4.70;;;8.40;63.60;;;;;;10543679;28;20200;-79
2021/03/21 10:54:25;;;;;;;5.80;5.30;;;8.50;64.90;;;;;;10540819;28;20212;-79
2021/03/21 10:59:27;;;;;;;6.20;5.60;;;8.50;68.80;;;;;;10529680;28;20219;-78
2021/03/21 11:04:31;;;;;;;7.23;6.53;;;8.40;71.10;;;;;;10540432;28;20219;-79
2021/03/21 11:09:35;;;;;;;7.53;6.93;;;8.40;72.00;;;;;;10542953;28;20216;-80
2021/03/21 11:14:38;;;;;;;8.00;7.20;;;8.40;72.90;;;;;;10547331;28;20687;-80
2021/03/21 11:19:46;;;;;;;7.37;6.67;;;8.50;72.50;;;;;;10546481;28;20303;-80
2021/03/21 11:24:49;;;;;;;8.00;7.10;;;8.60;72.90;;;;;;10552694;28;20255;-80
2021/03/21 11:29:51;;;;;;;8.10;7.33;;;8.70;71.90;;;;;;10540609;28;20249;-80
2021/03/21 11:35:01;;;;;;;7.90;7.10;;;8.80;70.60;;;;;;10525530;28;20216;-79
2021/03/21 11:40:07;;;;;;;7.63;6.83;;;8.80;69.80;;;;;;10528558;28;20208;-80
2021/03/21 11:45:27;;;;;;;7.53;6.83;;;8.90;67.90;;;;;;10528613;28;20216;-80
2021/03/21 11:50:30;;;;;;;7.73;6.20;;;8.80;68.50;;;;;;10513962;28;20279;-79
2021/03/21 11:55:39;;;;;;;7.47;6.70;;;8.90;67.30;;;;;;10536601;28;20236;-77
2021/03/21 12:00:47;;;;;;;6.70;6.10;;;8.90;67.10;;;;;;10531518;28;20215;-78
2021/03/21 12:06:00;;;;;;;7.50;6.90;;;8.80;67.10;;;;;;10511711;28;20220;-81
2021/03/21 12:11:18;;;;;;;7.00;6.30;;;8.80;67.20;;;;;;10520400;28;20287;-81
2021/03/21 12:16:36;;;;;;;6.67;6.07;;;8.70;68.50;;;;;;10514681;28;20235;-80
2021/03/21 12:21:39;;;;;;;4.97;4.57;;;8.70;68.20;;;;;;10522329;28;21178;-80
2021/03/21 12:26:52;;;;;;;5.70;5.17;;;8.70;70.10;;;;;;10505384;28;20223;-80
2021/03/21 12:31:55;;;;;;;4.90;4.50;;;8.70;70.80;;;;;;10496643;28;20193;-80
2021/03/21 12:37:04;;;;;;;4.27;3.97;;;8.70;72.40;;;;;;10543808;28;20215;-80
2021/03/21 12:42:30;;;;;;;5.20;4.70;;;8.80;74.10;;;;;;10513222;28;20910;-78
2021/03/21 12:47:33;;;;;;;4.50;4.10;;;9.00;74.40;;;;;;10510724;28;20690;-78
2021/03/21 12:52:44;;;;;;;4.93;4.53;;;9.10;74.70;;;;;;10513124;28;20301;-78
2021/03/21 12:57:47;;;;;;;3.87;3.67;;;9.10;75.20;;;;;;10526299;28;20296;-78
2021/03/21 13:02:52;;;;;;;5.20;4.80;;;9.10;76.60;;;;;;10526397;28;20220;-77
2021/03/21 13:07:54;;;;;;;5.60;5.20;;;9.20;77.30;;;;;;10532328;28;20220;-78
2021/03/21 13:12:56;;;;;;;4.60;4.20;;;9.30;77.90;;;;;;10531772;28;20230;-78
2021/03/21 13:17:58;;;;;;;4.43;4.03;;;9.40;78.30;;;;;;10531565;28;20250;-78
2021/03/21 13:23:00;;;;;;;4.73;4.43;;;9.30;77.90;;;;;;10531103;28;20616;-79
2021/03/21 13:28:05;;;;;;;5.10;4.70;;;9.30;78.40;;;;;;10531422;28;20192;-79
2021/03/21 13:33:10;;;;;;;4.90;4.50;;;9.20;78.90;;;;;;10530294;28;20715;-78
2021/03/21 13:38:11;;;;;;;4.90;4.50;;;9.20;79.20;;;;;;10525669;28;20219;-77
2021/03/21 13:43:15;;;;;;;5.23;4.83;;;9.20;79.70;;;;;;10525240;28;20245;-79
2021/03/21 13:48:17;;;;;;;4.93;4.53;;;9.30;79.60;;;;;;10524297;28;20192;-79
2021/03/21 13:53:27;;;;;;;6.17;5.67;;;9.40;79.10;;;;;;10540248;28;20219;-78
2021/03/21 13:58:29;;;;;;;5.57;5.07;;;9.40;79.50;;;;;;10538413;28;20306;-77
2021/03/21 14:03:31;;;;;;;5.53;5.13;;;9.50;79.60;;;;;;10542717;28;20624;-79
2021/03/21 14:08:33;;;;;;;6.13;5.60;;;9.50;79.30;;;;;;10550974;28;20195;-78
2021/03/21 14:13:35;;;;;;;6.30;5.80;;;9.40;79.30;;;;;;10541127;28;20307;-78
2021/03/21 14:18:37;;;;;;;7.40;6.60;;;9.30;79.50;;;;;;10536189;28;20303;-79
2021/03/21 14:23:39;;;;;;;6.67;6.07;;;9.20;79.60;;;;;;10558806;28;20230;-79
2021/03/21 14:28:41;;;;;;;6.67;6.07;;;9.10;80.80;;;;;;10553698;28;20286;-80
2021/03/21 14:33:43;;;;;;;5.83;5.20;;;9.10;81.00;;;;;;10552644;28;20758;-80
2021/03/21 14:38:45;;;;;;;6.70;5.60;;;9.10;81.10;;;;;;10546152;28;20220;-80
2021/03/21 14:43:47;;;;;;;6.23;5.73;;;9.10;81.10;;;;;;10554804;28;20223;-79
2021/03/21 14:48:49;;;;;;;6.57;5.97;;;9.10;81.40;;;;;;10556947;28;20200;-80
2021/03/21 14:53:51;;;;;;;6.90;6.30;;;9.20;80.90;;;;;;10555854;28;20238;-80
2021/03/21 14:58:53;;;;;;;6.60;5.90;;;9.20;80.60;;;;;;10554344;28;20750;-79
2021/03/21 15:03:55;;;;;;;7.07;6.47;;;9.20;80.80;;;;;;10549892;28;20291;-79
2021/03/21 15:08:56;;;;;;;7.10;6.50;;;9.30;81.10;;;;;;10547393;28;20188;-78
2021/03/21 15:13:59;;;;;;;6.80;6.10;;;9.30;81.00;;;;;;10522715;28;20274;-78
2021/03/21 15:19:01;;;;;;;7.70;7.00;;;9.30;81.30;;;;;;10510703;28;20314;-79
2021/03/21 15:24:03;;;;;;;7.13;6.50;;;9.30;81.00;;;;;;10545537;28;20326;-79
2021/03/21 15:29:06;;;;;;;8.00;7.30;;;9.40;81.70;;;;;;10543777;28;20191;-78
2021/03/21 15:34:10;;;;;;;8.10;7.40;;;9.50;82.40;;;;;;10561700;28;20227;-80
2021/03/21 15:39:12;;;;;;;8.70;7.90;;;9.50;80.70;;;;;;10545423;28;20238;-80
2021/03/21 15:44:15;;;;;;;7.60;6.87;;;9.40;80.30;;;;;;10553957;28;20243;-78
2021/03/21 15:49:16;;;;;;;8.40;7.63;;;9.30;80.90;;;;;;10545817;28;20199;-80
2021/03/21 15:54:18;;;;;;;7.83;7.13;;;9.20;81.70;;;;;;10543230;28;20758;-80
2021/03/21 15:59:21;;;;;;;7.50;6.90;;;9.30;81.20;;;;;;10542787;28;20222;-79
2021/03/21 16:04:23;;;;;;;7.77;7.10;;;9.20;81.50;;;;;;10549479;28;20223;-79
2021/03/21 16:09:26;;;;;;;7.80;7.00;;;9.20;81.90;;;;;;10547355;28;20191;-78
2021/03/21 16:14:29;;;;;;;8.90;8.00;;;9.20;82.10;;;;;;10547032;28;20220;-78
2021/03/21 16:19:30;;;;;;;8.00;7.20;;;9.20;81.80;;;;;;10539887;28;20251;-80
2021/03/21 16:24:32;;;;;;;8.37;7.57;;;9.20;82.10;;;;;;10558608;28;20286;-79
2021/03/21 16:29:35;;;;;;;7.90;7.13;;;9.20;82.40;;;;;;10540886;28;20200;-79
2021/03/21 16:34:36;;;;;;;8.30;7.50;;;9.20;82.60;;;;;;10537462;28;20307;-81
2021/03/21 16:39:38;;;;;;;8.10;7.30;;;9.10;82.50;;;;;;10542809;28;20230;-80
2021/03/21 16:44:41;;;;;;;7.20;6.60;;;9.10;82.70;;;;;;10543946;28;20695;-80
2021/03/21 16:49:46;;;;;;;9.37;7.50;;;9.00;82.20;;;;;;10526100;28;20188;-79
2021/03/21 16:54:47;;;;;;;8.23;7.43;;;9.00;82.60;;;;;;10529487;28;20279;-80
2021/03/21 16:59:51;;;;;;;9.13;7.10;;;9.00;82.30;;;;;;10528098;28;20219;-79
2021/03/21 17:04:56;;;;;;;7.97;7.27;;;8.90;82.70;;;;;;10531207;28;20573;-77
2021/03/21 17:10:13;;;;;;;8.43;7.73;;;8.80;82.70;;;;;;10522661;28;20203;-79
2021/03/21 17:15:16;;;;;;;9.57;8.70;;;8.80;82.80;;;;;;10524901;28;20226;-79
2021/03/21 17:20:18;;;;;;;9.00;8.20;;;8.80;83.10;;;;;;10523724;28;20299;-79
2021/03/21 17:25:27;;;;;;;9.40;8.50;;;8.70;83.40;;;;;;10539453;28;20237;-78
2021/03/21 17:30:34;;;;;;;9.50;8.57;;;8.70;83.50;;;;;;10522722;28;20313;-78
2021/03/21 17:35:36;;;;;;;9.63;8.73;;;8.60;83.80;;;;;;10531187;28;20216;-77
2021/03/21 17:40:40;;;;;;;11.17;8.50;;;8.60;84.00;;;;;;10523029;28;20220;-81
2021/03/21 17:45:44;;;;;;;10.53;9.50;;;8.50;84.30;;;;;;10517956;28;20237;-77
2021/03/21 17:50:49;;;;;;;10.10;9.10;;;8.50;84.40;;;;;;10522459;28;20191;-77
2021/03/21 17:55:51;;;;;;;11.83;9.03;;;8.50;84.20;;;;;;10530873;28;20220;-79
2021/03/21 18:00:54;;;;;;;10.10;9.20;;;8.40;84.30;;;;;;10535197;28;20740;-79
2021/03/21 18:05:56;;;;;;;10.17;8.90;;;8.40;84.50;;;;;;10530969;28;20269;-77
2021/03/21 18:10:58;;;;;;;10.23;9.33;;;8.30;85.00;;;;;;10526706;28;20577;-79
2021/03/21 18:16:00;;;;;;;11.47;9.30;;;8.20;85.80;;;;;;10521273;28;20266;-79
2021/03/21 18:21:03;;;;;;;11.90;9.33;;;8.20;85.10;;;;;;10525679;28;20250;-79
2021/03/21 18:26:07;;;;;;;12.27;9.87;;;8.20;84.80;;;;;;10503444;28;20224;-78
2021/03/21 18:31:11;;;;;;;12.27;10.17;;;8.10;84.80;;;;;;10512217;28;20196;-79
2021/03/21 18:36:13;;;;;;;8.93;8.13;;;8.10;85.10;;;;;;10516969;28;20290;-77
2021/03/21 18:41:17;;;;;;;11.67;10.43;;;8.10;84.80;;;;;;10513344;28;20590;-79
2021/03/21 18:46:20;;;;;;;10.93;9.80;;;8.10;84.70;;;;;;10527340;28;20226;-76
2021/03/21 18:51:22;;;;;;;11.57;9.63;;;8.10;84.10;;;;;;10508235;28;20649;-79
2021/03/21 18:56:24;;;;;;;11.40;9.80;;;8.10;84.40;;;;;;10496342;28;20224;-78
2021/03/21 19:01:26;;;;;;;10.80;9.50;;;8.10;84.10;;;;;;10519109;28;20212;-79
2021/03/21 19:06:28;;;;;;;12.87;10.13;;;8.10;84.10;;;;;;10533559;28;20699;-80
2021/03/21 19:11:30;;;;;;;12.00;9.20;;;8.10;84.10;;;;;;10540942;28;20200;-78
2021/03/21 19:16:33;;;;;;;10.73;9.07;;;8.10;84.40;;;;;;10537119;28;20691;-78
2021/03/21 19:21:35;;;;;;;10.37;8.93;;;8.00;83.80;;;;;;10531241;28;20227;-78
2021/03/21 19:26:37;;;;;;;11.70;9.77;;;8.00;84.00;;;;;;10530849;28;20314;-78
2021/03/21 19:31:39;;;;;;;12.20;10.17;;;8.00;84.00;;;;;;10546286;28;20200;-78
2021/03/21 19:36:41;;;;;;;12.77;10.50;;;8.00;83.90;;;;;;10532268;28;20322;-78
2021/03/21 19:41:44;;;;;;;14.33;10.67;;;8.00;84.20;;;;;;10530529;28;20231;-78
2021/03/21 19:46:45;;;;;;;13.77;10.00;;;7.90;83.60;;;;;;10523997;28;20227;-78
2021/03/21 19:51:47;;;;;;;11.67;9.60;;;7.90;84.10;;;;;;10530484;28;20300;-78
2021/03/21 19:56:52;;;;;;;14.27;10.57;;;7.80;84.40;;;;;;10538231;28;20227;-79
2021/03/21 20:01:53;;;;;;;13.00;11.00;;;7.80;84.30;;;;;;10530273;28;20253;-78
2021/03/21 20:06:55;;;;;;;19.10;11.13;;;7.70;84.10;;;;;;10532875;28;20224;-79
2021/03/21 20:11:57;;;;;;;18.17;11.00;;;7.70;84.20;;;;;;10513366;28;20195;-78
2021/03/21 20:16:59;;;;;;;15.37;11.20;;;7.60;84.00;;;;;;10528288;28;20235;-77
2021/03/21 20:22:01;;;;;;;17.57;12.70;;;7.50;84.20;;;;;;10532175;28;20192;-80
2021/03/21 20:27:05;;;;;;;12.90;10.40;;;7.50;84.30;;;;;;10534623;28;20223;-78
2021/03/21 20:32:08;;;;;;;13.03;10.57;;;7.40;84.40;;;;;;10519049;28;20223;-77
2021/03/21 20:37:10;;;;;;;13.70;11.20;;;7.40;84.40;;;;;;10494448;28;20223;-78
2021/03/21 20:42:13;;;;;;;21.40;12.27;;;7.30;85.20;;;;;;10515266;28;20284;-77
2021/03/21 20:47:15;;;;;;;14.67;9.77;;;7.30;84.70;;;;;;10506989;28;20575;-78
2021/03/21 20:52:16;;;;;;;16.10;10.93;;;7.40;84.70;;;;;;10509386;28;20200;-78
2021/03/21 20:57:19;;;;;;;18.57;11.43;;;7.40;84.50;;;;;;10516041;28;20227;-77
2021/03/21 21:02:23;;;;;;;15.80;10.97;;;7.40;84.50;;;;;;10509958;28;20766;-78
2021/03/21 21:07:25;;;;;;;15.03;10.90;;;7.30;84.20;;;;;;10493270;28;20372;-79
2021/03/21 21:12:30;;;;;;;13.73;10.37;;;7.30;84.60;;;;;;10523461;28;20200;-78
2021/03/21 21:17:34;;;;;;;14.47;11.13;;;7.30;84.60;;;;;;10515308;28;20220;-77
2021/03/21 21:22:36;;;;;;;16.20;10.70;;;7.30;84.50;;;;;;10512887;28;20235;-78
2021/03/21 21:27:39;;;;;;;17.27;11.10;;;7.30;84.30;;;;;;10511914;28;20219;-78
2021/03/21 21:32:41;;;;;;;13.90;10.43;;;7.30;84.80;;;;;;10491307;28;20220;-78
2021/03/21 21:37:42;;;;;;;16.60;10.10;;;7.30;84.10;;;;;;10524769;28;20216;-78
2021/03/21 21:42:46;;;;;;;19.80;11.93;;;7.40;84.10;;;;;;10524924;28;20246;-78
2021/03/21 21:47:47;;;;;;;15.00;10.83;;;7.40;84.20;;;;;;10552921;28;20188;-78
2021/03/21 21:52:49;;;;;;;16.27;12.00;;;7.40;84.20;;;;;;10537267;28;20633;-78
2021/03/21 21:57:54;;;;;;;15.10;10.40;;;7.40;84.20;;;;;;10510461;28;20319;-77
2021/03/21 22:02:56;;;;;;;16.50;10.50;;;7.50;84.40;;;;;;10509400;28;20710;-79
2021/03/21 22:07:58;;;;;;;16.20;10.03;;;7.50;83.70;;;;;;10511585;28;20196;-79
2021/03/21 22:13:01;;;;;;;17.00;10.70;;;7.50;83.90;;;;;;10511178;28;20212;-77
2021/03/21 22:18:03;;;;;;;16.80;10.23;;;7.50;83.90;;;;;;10515316;28;20784;-78
2021/03/21 22:23:08;;;;;;;16.67;10.77;;;7.50;84.10;;;;;;10513487;28;20664;-78
2021/03/21 22:28:10;;;;;;;15.97;10.07;;;7.50;84.30;;;;;;10513365;28;20232;-79
2021/03/21 22:33:17;;;;;;;16.37;9.47;;;7.50;84.90;;;;;;10518836;28;20224;-80
2021/03/21 22:38:20;;;;;;;26.17;10.30;;;7.50;84.50;;;;;;10522319;28;20262;-80
2021/03/21 22:43:22;;;;;;;16.10;9.77;;;7.50;84.20;;;;;;10511747;28;20672;-77
2021/03/21 22:48:24;;;;;;;13.23;10.60;;;7.50;84.90;;;;;;10521777;28;20234;-78
2021/03/21 22:53:25;;;;;;;23.33;10.50;;;7.50;84.20;;;;;;10522618;28;20228;-78
2021/03/21 22:58:31;;;;;;;22.33;11.47;;;7.40;83.60;;;;;;10533974;28;20214;-80
2021/03/21 23:03:33;;;;;;;13.60;9.27;;;7.40;83.80;;;;;;10533026;28;20634;-80
2021/03/21 23:08:35;;;;;;;14.70;9.77;;;7.40;84.00;;;;;;10547059;28;20215;-78
2021/03/21 23:13:43;;;;;;;17.83;10.47;;;7.30;84.50;;;;;;10545139;28;20219;-77
2021/03/21 23:18:45;;;;;;;15.70;9.80;;;7.30;84.60;;;;;;10502369;28;20250;-78
2021/03/21 23:23:47;;;;;;;20.30;10.57;;;7.20;84.70;;;;;;10516735;28;20224;-78
2021/03/21 23:28:49;;;;;;;20.33;10.63;;;7.10;84.50;;;;;;10525614;28;20228;-78
2021/03/21 23:33:51;;;;;;;19.70;11.40;;;7.00;85.20;;;;;;10494252;28;20219;-78
2021/03/21 23:38:53;;;;;;;15.47;9.83;;;7.00;85.50;;;;;;10529498;28;20212;-77
2021/03/21 23:43:55;;;;;;;17.70;10.50;;;6.90;85.90;;;;;;10529236;28;20306;-77
2021/03/21 23:48:58;;;;;;;14.77;10.00;;;6.90;86.00;;;;;;10529766;28;20238;-77
2021/03/21 23:53:59;;;;;;;16.70;9.50;;;6.80;87.00;;;;;;10511642;28;20216;-77
2021/03/21 23:59:02;;;;;;;22.33;9.50;;;6.80;86.40;;;;;;10511387;28;20771;-78
